sensor_id;sensor_type;location;lat;lon;timestamp;pressure;altitude;pressure_sealevel;temperature;humidity
69980;BME280;57318;56.232;43.944;2022-11-23T00:00:57;98591.53;;;-2.95;89.55
69980;BME280;57318;56.232;43.944;2022-11-23T00:03:22;98586.47;;;-2.98;89.53
69980;BME280;57318;56.232;43.944;2022-11-23T00:05:48;98586.59;;;-3.01;90.29
69980;BME280;57318;56.232;43.944;2022-11-23T00:08:13;98582.84;;;-2.94;90.00
69980;BME280;57318;56.232;43.944;2022-11-23T00:10:39;98581.75;;;-2.88;90.30
69980;BME280;57318;56.232;43.944;2022-11-23T00:13:05;98585.44;;;-2.94;89.47
69980;BME280;57318;56.232;43.944;2022-11-23T00:15:30;98584.41;;;-2.90;89.70
69980;BME280;57318;56.232;43.944;2022-11-23T00:17:57;98582.91;;;-2.95;89.18
69980;BME280;57318;56.232;43.944;2022-11-23T00:20:24;98577.66;;;-2.94;89.53
69980;BME280;57318;56.232;43.944;2022-11-23T00:22:50;98573.13;;;-2.88;89.60
69980;BME280;57318;56.232;43.944;2022-11-23T00:25:15;98573.00;;;-2.85;89.94
69980;BME280;57318;56.232;43.944;2022-11-23T00:27:41;98572.81;;;-2.81;89.90
69980;BME280;57318;56.232;43.944;2022-11-23T00:30:07;98577.13;;;-2.80;90.25
69980;BME280;57318;56.232;43.944;2022-11-23T00:32:33;98575.88;;;-2.71;90.17
69980;BME280;57318;56.232;43.944;2022-11-23T00:34:58;98581.28;;;-2.76;90.00
69980;BME280;57318;56.232;43.944;2022-11-23T00:37:24;98579.44;;;-2.74;89.89
69980;BME280;57318;56.232;43.944;2022-11-23T00:39:50;98581.97;;;-2.72;89.52
69980;BME280;57318;56.232;43.944;2022-11-23T00:42:15;98569.78;;;-2.70;89.59
69980;BME280;57318;56.232;43.944;2022-11-23T00:44:41;98577.91;;;-2.78;90.05
69980;BME280;57318;56.232;43.944;2022-11-23T00:47:06;98575.22;;;-2.76;89.73
69980;BME280;57318;56.232;43.944;2022-11-23T00:49:32;98570.16;;;-2.79;89.63
69980;BME280;57318;56.232;43.944;2022-11-23T00:51:57;98567.38;;;-2.75;89.50
69980;BME280;57318;56.232;43.944;2022-11-23T00:54:23;98558.69;;;-2.75;89.99
69980;BME280;57318;56.232;43.944;2022-11-23T00:56:49;98558.63;;;-2.74;89.80
69980;BME280;57318;56.232;43.944;2022-11-23T00:59:14;98550.78;;;-2.72;89.84
69980;BME280;57318;56.232;43.944;2022-11-23T01:01:40;98543.84;;;-2.72;89.92
69980;BME280;57318;56.232;43.944;2022-11-23T01:04:07;98537.66;;;-2.69;89.89
69980;BME280;57318;56.232;43.944;2022-11-23T01:06:35;98542.09;;;-2.71;90.21
69980;BME280;57318;56.232;43.944;2022-11-23T01:09:15;98542.78;;;-2.67;89.94
69980;BME280;57318;56.232;43.944;2022-11-23T01:11:44;98545.22;;;-2.63;90.05
69980;BME280;57318;56.232;43.944;2022-11-23T01:14:11;98547.94;;;-2.66;90.06
69980;BME280;57318;56.232;43.944;2022-11-23T01:16:38;98543.34;;;-2.59;89.88
69980;BME280;57318;56.232;43.944;2022-11-23T01:19:15;98547.63;;;-2.58;89.68
69980;BME280;57318;56.232;43.944;2022-11-23T01:21:41;98546.00;;;-2.61;89.50
69980;BME280;57318;56.232;43.944;2022-11-23T01:24:15;98552.81;;;-2.58;89.79
69980;BME280;57318;56.232;43.944;2022-11-23T01:26:41;98539.94;;;-2.61;89.75
69980;BME280;57318;56.232;43.944;2022-11-23T01:29:08;98544.19;;;-2.59;89.92
69980;BME280;57318;56.232;43.944;2022-11-23T01:31:34;98546.72;;;-2.57;90.09
69980;BME280;57318;56.232;43.944;2022-11-23T01:34:01;98533.66;;;-2.56;90.11
69980;BME280;57318;56.232;43.944;2022-11-23T01:36:29;98537.16;;;-2.57;90.17
69980;BME280;57318;56.232;43.944;2022-11-23T01:38:56;98542.34;;;-2.57;89.95
69980;BME280;57318;56.232;43.944;2022-11-23T01:41:25;98530.81;;;-2.49;89.87
69980;BME280;57318;56.232;43.944;2022-11-23T01:43:51;98542.09;;;-2.50;90.13
69980;BME280;57318;56.232;43.944;2022-11-23T01:46:18;98536.25;;;-2.56;90.31
69980;BME280;57318;56.232;43.944;2022-11-23T01:49:05;98532.63;;;-2.51;90.26
69980;BME280;57318;56.232;43.944;2022-11-23T01:51:36;98529.88;;;-2.48;90.24
69980;BME280;57318;56.232;43.944;2022-11-23T01:54:08;98536.72;;;-2.46;90.26
69980;BME280;57318;56.232;43.944;2022-11-23T01:56:39;98541.03;;;-2.45;90.23
69980;BME280;57318;56.232;43.944;2022-11-23T01:59:10;98516.09;;;-2.50;90.26
69980;BME280;57318;56.232;43.944;2022-11-23T02:01:36;98524.91;;;-2.53;90.49
69980;BME280;57318;56.232;43.944;2022-11-23T02:04:02;98526.38;;;-2.47;90.24
69980;BME280;57318;56.232;43.944;2022-11-23T02:06:29;98520.22;;;-2.45;90.54
69980;BME280;57318;56.232;43.944;2022-11-23T02:08:56;98521.88;;;-2.44;90.44
69980;BME280;57318;56.232;43.944;2022-11-23T02:11:22;98519.28;;;-2.44;90.66
69980;BME280;57318;56.232;43.944;2022-11-23T02:13:49;98520.28;;;-2.46;90.69
69980;BME280;57318;56.232;43.944;2022-11-23T02:16:17;98520.28;;;-2.46;91.04
69980;BME280;57318;56.232;43.944;2022-11-23T02:18:45;98516.50;;;-2.39;90.79
69980;BME280;57318;56.232;43.944;2022-11-23T02:21:11;98513.13;;;-2.41;90.98
69980;BME280;57318;56.232;43.944;2022-11-23T02:26:44;98518.06;;;-2.35;91.05
69980;BME280;57318;56.232;43.944;2022-11-23T02:31:41;98509.34;;;-2.34;90.88
69980;BME280;57318;56.232;43.944;2022-11-23T02:34:07;98504.94;;;-2.32;90.99
69980;BME280;57318;56.232;43.944;2022-11-23T02:36:39;98500.56;;;-2.31;91.27
69980;BME280;57318;56.232;43.944;2022-11-23T02:41:53;98498.81;;;-2.31;91.12
69980;BME280;57318;56.232;43.944;2022-11-23T02:47:08;98490.16;;;-2.31;91.14
69980;BME280;57318;56.232;43.944;2022-11-23T02:49:34;98483.34;;;-2.34;91.40
69980;BME280;57318;56.232;43.944;2022-11-23T02:52:00;98485.69;;;-2.28;91.30
69980;BME280;57318;56.232;43.944;2022-11-23T02:54:26;98484.75;;;-2.27;91.38
69980;BME280;57318;56.232;43.944;2022-11-23T02:56:52;98483.06;;;-2.28;91.41
69980;BME280;57318;56.232;43.944;2022-11-23T02:59:18;98479.09;;;-2.37;91.71
69980;BME280;57318;56.232;43.944;2022-11-23T03:01:43;98484.88;;;-2.30;91.56
69980;BME280;57318;56.232;43.944;2022-11-23T03:04:09;98480.53;;;-2.29;91.53
69980;BME280;57318;56.232;43.944;2022-11-23T03:06:35;98485.00;;;-2.33;91.66
69980;BME280;57318;56.232;43.944;2022-11-23T03:09:02;98484.88;;;-2.30;91.88
69980;BME280;57318;56.232;43.944;2022-11-23T03:11:27;98481.25;;;-2.26;91.59
69980;BME280;57318;56.232;43.944;2022-11-23T03:13:53;98475.91;;;-2.23;91.88
69980;BME280;57318;56.232;43.944;2022-11-23T03:16:19;98481.75;;;-2.18;91.38
69980;BME280;57318;56.232;43.944;2022-11-23T03:18:45;98474.00;;;-2.19;91.82
69980;BME280;57318;56.232;43.944;2022-11-23T03:21:10;98471.47;;;-2.21;91.89
69980;BME280;57318;56.232;43.944;2022-11-23T03:23:36;98474.78;;;-2.17;91.73
69980;BME280;57318;56.232;43.944;2022-11-23T03:26:02;98457.22;;;-2.12;91.45
69980;BME280;57318;56.232;43.944;2022-11-23T03:28:29;98467.16;;;-2.22;91.91
69980;BME280;57318;56.232;43.944;2022-11-23T03:30:55;98458.53;;;-2.22;91.87
69980;BME280;57318;56.232;43.944;2022-11-23T03:33:21;98455.72;;;-2.18;92.00
69980;BME280;57318;56.232;43.944;2022-11-23T03:35:47;98457.34;;;-2.15;91.94
69980;BME280;57318;56.232;43.944;2022-11-23T03:38:12;98456.50;;;-2.15;91.99
69980;BME280;57318;56.232;43.944;2022-11-23T03:40:38;98446.00;;;-2.14;92.04
69980;BME280;57318;56.232;43.944;2022-11-23T03:43:04;98453.00;;;-2.14;92.13
69980;BME280;57318;56.232;43.944;2022-11-23T03:45:30;98448.47;;;-2.11;92.01
69980;BME280;57318;56.232;43.944;2022-11-23T03:47:56;98449.63;;;-2.16;92.30
69980;BME280;57318;56.232;43.944;2022-11-23T03:50:21;98457.34;;;-2.15;92.39
69980;BME280;57318;56.232;43.944;2022-11-23T03:52:48;98447.56;;;-2.10;92.35
69980;BME280;57318;56.232;43.944;2022-11-23T03:55:14;98449.34;;;-2.10;92.41
69980;BME280;57318;56.232;43.944;2022-11-23T03:57:39;98438.06;;;-2.11;92.55
69980;BME280;57318;56.232;43.944;2022-11-23T04:00:06;98441.47;;;-2.09;92.47
69980;BME280;57318;56.232;43.944;2022-11-23T04:02:32;98438.72;;;-2.06;92.36
69980;BME280;57318;56.232;43.944;2022-11-23T04:04:58;98438.81;;;-2.07;92.60
69980;BME280;57318;56.232;43.944;2022-11-23T04:07:24;98444.72;;;-2.04;92.46
69980;BME280;57318;56.232;43.944;2022-11-23T04:09:49;98441.97;;;-2.01;92.60
69980;BME280;57318;56.232;43.944;2022-11-23T04:12:15;98443.88;;;-2.04;92.67
69980;BME280;57318;56.232;43.944;2022-11-23T04:14:41;98433.88;;;-1.94;92.68
69980;BME280;57318;56.232;43.944;2022-11-23T04:17:07;98428.13;;;-2.01;92.48
69980;BME280;57318;56.232;43.944;2022-11-23T04:19:33;98435.66;;;-1.95;92.44
69980;BME280;57318;56.232;43.944;2022-11-23T04:21:58;98431.22;;;-1.93;92.56
69980;BME280;57318;56.232;43.944;2022-11-23T04:24:24;98439.16;;;-1.96;92.67
69980;BME280;57318;56.232;43.944;2022-11-23T04:26:50;98435.84;;;-2.00;92.56
69980;BME280;57318;56.232;43.944;2022-11-23T04:29:16;98429.72;;;-1.98;92.71
69980;BME280;57318;56.232;43.944;2022-11-23T04:31:42;98429.22;;;-1.88;92.56
69980;BME280;57318;56.232;43.944;2022-11-23T04:34:08;98432.13;;;-1.94;92.77
69980;BME280;57318;56.232;43.944;2022-11-23T04:36:34;98429.56;;;-1.95;92.58
69980;BME280;57318;56.232;43.944;2022-11-23T04:39:00;98426.13;;;-1.96;92.69
69980;BME280;57318;56.232;43.944;2022-11-23T04:41:27;98422.31;;;-1.89;92.74
69980;BME280;57318;56.232;43.944;2022-11-23T04:43:52;98418.97;;;-1.91;92.89
69980;BME280;57318;56.232;43.944;2022-11-23T04:46:18;98417.91;;;-1.87;92.61
69980;BME280;57318;56.232;43.944;2022-11-23T04:48:44;98413.59;;;-1.88;92.87
69980;BME280;57318;56.232;43.944;2022-11-23T04:51:09;98418.25;;;-1.94;93.07
69980;BME280;57318;56.232;43.944;2022-11-23T04:53:35;98417.25;;;-1.92;92.88
69980;BME280;57318;56.232;43.944;2022-11-23T04:56:01;98413.75;;;-1.91;93.21
69980;BME280;57318;56.232;43.944;2022-11-23T04:58:27;98424.72;;;-1.84;92.87
69980;BME280;57318;56.232;43.944;2022-11-23T05:00:52;98424.66;;;-1.83;92.71
69980;BME280;57318;56.232;43.944;2022-11-23T05:03:18;98430.28;;;-1.92;92.83
69980;BME280;57318;56.232;43.944;2022-11-23T05:05:44;98420.94;;;-1.96;93.10
69980;BME280;57318;56.232;43.944;2022-11-23T05:08:09;98426.00;;;-1.93;93.36
69980;BME280;57318;56.232;43.944;2022-11-23T05:10:36;98429.09;;;-1.85;93.09
69980;BME280;57318;56.232;43.944;2022-11-23T05:13:02;98425.25;;;-1.95;93.05
69980;BME280;57318;56.232;43.944;2022-11-23T05:15:28;98417.84;;;-1.85;92.99
69980;BME280;57318;56.232;43.944;2022-11-23T05:18:00;98426.41;;;-1.83;92.96
69980;BME280;57318;56.232;43.944;2022-11-23T05:20:26;98421.84;;;-1.78;92.99
69980;BME280;57318;56.232;43.944;2022-11-23T05:22:51;98410.50;;;-1.77;92.86
69980;BME280;57318;56.232;43.944;2022-11-23T05:25:17;98408.75;;;-1.76;92.82
69980;BME280;57318;56.232;43.944;2022-11-23T05:27:43;98414.31;;;-1.84;93.15
69980;BME280;57318;56.232;43.944;2022-11-23T05:30:08;98405.31;;;-1.77;92.90
69980;BME280;57318;56.232;43.944;2022-11-23T05:32:34;98409.81;;;-1.80;92.87
69980;BME280;57318;56.232;43.944;2022-11-23T05:35:00;98404.47;;;-1.77;92.85
69980;BME280;57318;56.232;43.944;2022-11-23T05:37:25;98407.69;;;-1.72;92.93
69980;BME280;57318;56.232;43.944;2022-11-23T05:39:51;98411.50;;;-1.79;92.73
69980;BME280;57318;56.232;43.944;2022-11-23T05:42:17;98401.94;;;-1.79;93.15
69980;BME280;57318;56.232;43.944;2022-11-23T05:44:42;98400.94;;;-1.76;92.80
69980;BME280;57318;56.232;43.944;2022-11-23T05:47:08;98405.84;;;-1.70;92.63
69980;BME280;57318;56.232;43.944;2022-11-23T05:49:33;98407.56;;;-1.69;92.44
69980;BME280;57318;56.232;43.944;2022-11-23T05:51:59;98391.09;;;-1.70;92.47
69980;BME280;57318;56.232;43.944;2022-11-23T05:54:25;98385.38;;;-1.78;92.39
69980;BME280;57318;56.232;43.944;2022-11-23T05:56:50;98393.91;;;-1.74;92.68
69980;BME280;57318;56.232;43.944;2022-11-23T05:59:16;98398.97;;;-1.71;92.71
69980;BME280;57318;56.232;43.944;2022-11-23T06:01:42;98403.25;;;-1.70;92.50
69980;BME280;57318;56.232;43.944;2022-11-23T06:04:07;98396.00;;;-1.64;92.68
69980;BME280;57318;56.232;43.944;2022-11-23T06:06:33;98400.66;;;-1.70;92.47
69980;BME280;57318;56.232;43.944;2022-11-23T06:08:59;98399.53;;;-1.65;92.57
69980;BME280;57318;56.232;43.944;2022-11-23T06:11:24;98393.09;;;-1.57;92.26
69980;BME280;57318;56.232;43.944;2022-11-23T06:13:50;98401.13;;;-1.62;92.24
69980;BME280;57318;56.232;43.944;2022-11-23T06:16:16;98392.56;;;-1.64;92.53
69980;BME280;57318;56.232;43.944;2022-11-23T06:18:41;98393.47;;;-1.65;92.48
69980;BME280;57318;56.232;43.944;2022-11-23T06:21:07;98387.28;;;-1.63;92.14
69980;BME280;57318;56.232;43.944;2022-11-23T06:23:32;98395.34;;;-1.50;92.15
69980;BME280;57318;56.232;43.944;2022-11-23T06:25:59;98401.50;;;-1.51;92.25
69980;BME280;57318;56.232;43.944;2022-11-23T06:28:25;98396.28;;;-1.51;91.96
69980;BME280;57318;56.232;43.944;2022-11-23T06:30:51;98389.38;;;-1.52;91.89
69980;BME280;57318;56.232;43.944;2022-11-23T06:33:17;98386.47;;;-1.46;91.80
69980;BME280;57318;56.232;43.944;2022-11-23T06:35:54;98386.41;;;-1.44;91.58
69980;BME280;57318;56.232;43.944;2022-11-23T06:38:20;98386.47;;;-1.46;91.54
69980;BME280;57318;56.232;43.944;2022-11-23T06:40:46;98388.38;;;-1.49;91.89
69980;BME280;57318;56.232;43.944;2022-11-23T06:43:11;98380.50;;;-1.48;91.47
69980;BME280;57318;56.232;43.944;2022-11-23T06:45:37;98377.97;;;-1.49;91.81
69980;BME280;57318;56.232;43.944;2022-11-23T06:48:03;98384.78;;;-1.47;91.66
69980;BME280;57318;56.232;43.944;2022-11-23T06:50:29;98388.25;;;-1.46;91.82
69980;BME280;57318;56.232;43.944;2022-11-23T06:52:55;98387.38;;;-1.47;91.70
69980;BME280;57318;56.232;43.944;2022-11-23T06:55:22;98380.44;;;-1.46;91.85
69980;BME280;57318;56.232;43.944;2022-11-23T06:57:48;98374.13;;;-1.42;91.59
69980;BME280;57318;56.232;43.944;2022-11-23T07:00:14;98370.09;;;-1.48;92.14
69980;BME280;57318;56.232;43.944;2022-11-23T07:02:41;98368.00;;;-1.41;91.82
69980;BME280;57318;56.232;43.944;2022-11-23T07:05:07;98371.16;;;-1.34;91.33
69980;BME280;57318;56.232;43.944;2022-11-23T07:07:33;98365.78;;;-1.31;91.61
69980;BME280;57318;56.232;43.944;2022-11-23T07:09:59;98372.00;;;-1.34;91.31
69980;BME280;57318;56.232;43.944;2022-11-23T07:12:24;98361.50;;;-1.32;91.00
69980;BME280;57318;56.232;43.944;2022-11-23T07:14:50;98365.78;;;-1.31;91.85
69980;BME280;57318;56.232;43.944;2022-11-23T07:17:15;98356.13;;;-1.29;91.26
69980;BME280;57318;56.232;43.944;2022-11-23T07:19:41;98370.84;;;-1.28;91.20
69980;BME280;57318;56.232;43.944;2022-11-23T07:22:07;98367.66;;;-1.33;91.05
69980;BME280;57318;56.232;43.944;2022-11-23T07:24:32;98362.59;;;-1.36;91.34
69980;BME280;57318;56.232;43.944;2022-11-23T07:26:58;98367.09;;;-1.40;91.36
69980;BME280;57318;56.232;43.944;2022-11-23T07:29:23;98363.41;;;-1.36;91.07
69980;BME280;57318;56.232;43.944;2022-11-23T07:31:49;98372.22;;;-1.38;91.54
69980;BME280;57318;56.232;43.944;2022-11-23T07:34:15;98367.50;;;-1.30;91.28
69980;BME280;57318;56.232;43.944;2022-11-23T07:36:40;98364.09;;;-1.32;91.12
69980;BME280;57318;56.232;43.944;2022-11-23T07:39:06;98373.59;;;-1.49;91.73
69980;BME280;57318;56.232;43.944;2022-11-23T07:41:32;98373.53;;;-1.47;91.89
69980;BME280;57318;56.232;43.944;2022-11-23T07:43:57;98372.75;;;-1.49;91.92
69980;BME280;57318;56.232;43.944;2022-11-23T07:46:23;98365.16;;;-1.54;91.75
69980;BME280;57318;56.232;43.944;2022-11-23T07:48:49;98366.53;;;-1.47;91.82
69980;BME280;57318;56.232;43.944;2022-11-23T07:51:14;98369.88;;;-1.62;91.90
69980;BME280;57318;56.232;43.944;2022-11-23T07:53:41;98371.06;;;-1.50;91.73
69980;BME280;57318;56.232;43.944;2022-11-23T07:56:07;98370.84;;;-1.46;91.63
69980;BME280;57318;56.232;43.944;2022-11-23T07:58:32;98366.94;;;-1.37;91.58
69980;BME280;57318;56.232;43.944;2022-11-23T08:00:59;98357.53;;;-1.39;91.50
69980;BME280;57318;56.232;43.944;2022-11-23T08:03:24;98360.88;;;-1.37;91.36
69980;BME280;57318;56.232;43.944;2022-11-23T08:05:50;98361.03;;;-1.40;91.37
69980;BME280;57318;56.232;43.944;2022-11-23T08:08:16;98362.44;;;-1.33;91.40
69980;BME280;57318;56.232;43.944;2022-11-23T08:10:41;98356.69;;;-1.40;91.19
69980;BME280;57318;56.232;43.944;2022-11-23T08:13:07;98358.28;;;-1.37;91.16
69980;BME280;57318;56.232;43.944;2022-11-23T08:15:34;98356.69;;;-1.40;91.23
69980;BME280;57318;56.232;43.944;2022-11-23T08:18:00;98352.31;;;-1.39;91.68
69980;BME280;57318;56.232;43.944;2022-11-23T08:20:27;98342.47;;;-1.52;91.55
69980;BME280;57318;56.232;43.944;2022-11-23T08:22:53;98345.53;;;-1.43;91.58
69980;BME280;57318;56.232;43.944;2022-11-23T08:25:25;98342.72;;;-1.39;91.25
69980;BME280;57318;56.232;43.944;2022-11-23T08:28:09;98343.94;;;-1.46;91.82
69980;BME280;57318;56.232;43.944;2022-11-23T08:30:35;98332.16;;;-1.36;91.82
69980;BME280;57318;56.232;43.944;2022-11-23T08:33:04;98339.88;;;-1.34;91.39
69980;BME280;57318;56.232;43.944;2022-11-23T08:35:35;98342.19;;;-1.28;91.16
69980;BME280;57318;56.232;43.944;2022-11-23T08:38:03;98340.03;;;-1.37;90.97
69980;BME280;57318;56.232;43.944;2022-11-23T08:40:29;98347.63;;;-1.33;90.90
69980;BME280;57318;56.232;43.944;2022-11-23T08:42:54;98338.50;;;-1.41;90.92
69980;BME280;57318;56.232;43.944;2022-11-23T08:45:20;98340.03;;;-1.37;91.21
69980;BME280;57318;56.232;43.944;2022-11-23T08:47:46;98346.00;;;-1.35;91.21
69980;BME280;57318;56.232;43.944;2022-11-23T08:50:12;98352.22;;;-1.38;90.85
69980;BME280;57318;56.232;43.944;2022-11-23T08:52:38;98344.78;;;-1.28;91.07
69980;BME280;57318;56.232;43.944;2022-11-23T08:55:05;98338.59;;;-1.25;90.73
69980;BME280;57318;56.232;43.944;2022-11-23T08:57:30;98343.75;;;-1.24;90.72
69980;BME280;57318;56.232;43.944;2022-11-23T08:59:56;98339.97;;;-1.18;90.02
69980;BME280;57318;56.232;43.944;2022-11-23T09:02:22;98334.75;;;-1.18;89.99
69980;BME280;57318;56.232;43.944;2022-11-23T09:04:48;98340.72;;;-1.34;89.81
69980;BME280;57318;56.232;43.944;2022-11-23T09:07:13;98336.59;;;-1.20;89.95
69980;BME280;57318;56.232;43.944;2022-11-23T09:09:39;98331.09;;;-1.32;90.35
69980;BME280;57318;56.232;43.944;2022-11-23T09:12:05;98324.19;;;-1.33;90.07
69980;BME280;57318;56.232;43.944;2022-11-23T09:14:31;98330.72;;;-1.24;90.10
69980;BME280;57318;56.232;43.944;2022-11-23T09:16:59;98334.38;;;-1.28;90.36
69980;BME280;57318;56.232;43.944;2022-11-23T09:19:25;98328.41;;;-1.30;90.25
69980;BME280;57318;56.232;43.944;2022-11-23T09:21:50;98329.59;;;-1.37;90.44
69980;BME280;57318;56.232;43.944;2022-11-23T09:24:16;98329.47;;;-1.34;90.59
69980;BME280;57318;56.232;43.944;2022-11-23T09:26:42;98324.84;;;-1.29;90.24
69980;BME280;57318;56.232;43.944;2022-11-23T09:29:08;98319.34;;;-1.23;90.35
69980;BME280;57318;56.232;43.944;2022-11-23T09:31:36;98324.41;;;-1.20;89.97
69980;BME280;57318;56.232;43.944;2022-11-23T09:34:03;98322.25;;;-1.29;90.02
69980;BME280;57318;56.232;43.944;2022-11-23T09:36:29;98319.13;;;-1.36;90.45
69980;BME280;57318;56.232;43.944;2022-11-23T09:38:54;98322.09;;;-1.26;90.22
69980;BME280;57318;56.232;43.944;2022-11-23T09:49:36;98306.75;;;-1.50;89.98
69980;BME280;57318;56.232;43.944;2022-11-23T09:52:18;98304.00;;;-1.47;90.16
69980;BME280;57318;56.232;43.944;2022-11-23T09:54:48;98310.53;;;-1.55;90.77
69980;BME280;57318;56.232;43.944;2022-11-23T09:57:21;98303.47;;;-1.53;91.14
69980;BME280;57318;56.232;43.944;2022-11-23T09:59:58;98294.69;;;-1.33;90.71
69980;BME280;57318;56.232;43.944;2022-11-23T10:02:26;98297.59;;;-1.22;90.23
69980;BME280;57318;56.232;43.944;2022-11-23T10:04:58;98289.53;;;-1.17;89.75
69980;BME280;57318;56.232;43.944;2022-11-23T10:07:44;98283.94;;;-1.10;89.49
69980;BME280;57318;56.232;43.944;2022-11-23T10:16:25;98284.22;;;-0.98;88.72
69980;BME280;57318;56.232;43.944;2022-11-23T10:22:15;98287.16;;;-1.22;87.94
69980;BME280;57318;56.232;43.944;2022-11-23T10:24:51;98282.47;;;-1.15;88.41
69980;BME280;57318;56.232;43.944;2022-11-23T10:27:19;98282.75;;;-1.04;88.26
69980;BME280;57318;56.232;43.944;2022-11-23T10:29:47;98279.84;;;-0.98;87.86
69980;BME280;57318;56.232;43.944;2022-11-23T10:32:35;98276.72;;;-1.04;87.37
69980;BME280;57318;56.232;43.944;2022-11-23T10:35:09;98278.63;;;-1.08;87.66
69980;BME280;57318;56.232;43.944;2022-11-23T10:37:37;98278.78;;;-1.11;87.77
69980;BME280;57318;56.232;43.944;2022-11-23T10:40:25;98272.56;;;-1.09;87.71
69980;BME280;57318;56.232;43.944;2022-11-23T10:42:58;98275.00;;;-1.05;87.30
69980;BME280;57318;56.232;43.944;2022-11-23T10:45:26;98273.19;;;-1.38;87.02
69980;BME280;57318;56.232;43.944;2022-11-23T10:47:57;98264.53;;;-1.56;88.25
69980;BME280;57318;56.232;43.944;2022-11-23T10:50:28;98270.34;;;-1.69;88.70
69980;BME280;57318;56.232;43.944;2022-11-23T10:53:00;98269.59;;;-1.71;88.89
69980;BME280;57318;56.232;43.944;2022-11-23T10:55:29;98263.22;;;-1.83;89.26
69980;BME280;57318;56.232;43.944;2022-11-23T10:57:55;98269.06;;;-1.77;88.71
69980;BME280;57318;56.232;43.944;2022-11-23T11:00:23;98272.41;;;-1.75;88.50
69980;BME280;57318;56.232;43.944;2022-11-23T11:02:53;98271.91;;;-1.65;87.97
69980;BME280;57318;56.232;43.944;2022-11-23T11:05:36;98280.84;;;-1.70;88.02
69980;BME280;57318;56.232;43.944;2022-11-23T11:08:14;98291.66;;;-1.60;87.52
69980;BME280;57318;56.232;43.944;2022-11-23T11:10:49;98292.75;;;-1.65;87.57
69980;BME280;57318;56.232;43.944;2022-11-23T11:16:00;98297.25;;;-2.05;88.24
69980;BME280;57318;56.232;43.944;2022-11-23T11:18:29;98297.22;;;-1.86;88.02
69980;BME280;57318;56.232;43.944;2022-11-23T11:20:58;98294.59;;;-1.86;88.33
69980;BME280;57318;56.232;43.944;2022-11-23T11:23:25;98296.22;;;-1.83;88.02
69980;BME280;57318;56.232;43.944;2022-11-23T11:26:02;98309.31;;;-1.85;87.54
69980;BME280;57318;56.232;43.944;2022-11-23T11:28:39;98302.59;;;-2.08;87.95
69980;BME280;57318;56.232;43.944;2022-11-23T11:33:57;98306.34;;;-2.13;88.07
69980;BME280;57318;56.232;43.944;2022-11-23T11:36:31;98307.78;;;-2.08;88.21
69980;BME280;57318;56.232;43.944;2022-11-23T11:39:02;98317.09;;;-2.02;87.80
69980;BME280;57318;56.232;43.944;2022-11-23T11:41:32;98319.06;;;-2.07;88.06
69980;BME280;57318;56.232;43.944;2022-11-23T11:44:04;98306.53;;;-1.99;87.44
69980;BME280;57318;56.232;43.944;2022-11-23T11:46:38;98308.84;;;-1.93;87.36
69980;BME280;57318;56.232;43.944;2022-11-23T11:49:11;98317.13;;;-1.85;87.20
69980;BME280;57318;56.232;43.944;2022-11-23T11:51:41;98307.97;;;-1.93;86.80
69980;BME280;57318;56.232;43.944;2022-11-23T11:56:49;98311.09;;;-1.85;86.34
69980;BME280;57318;56.232;43.944;2022-11-23T11:59:32;98320.03;;;-1.91;86.41
69980;BME280;57318;56.232;43.944;2022-11-23T12:02:28;98313.13;;;-1.92;86.51
69980;BME280;57318;56.232;43.944;2022-11-23T12:05:04;98318.50;;;-1.95;86.41
69980;BME280;57318;56.232;43.944;2022-11-23T12:07:34;98316.78;;;-1.96;86.38
69980;BME280;57318;56.232;43.944;2022-11-23T12:10:20;98319.19;;;-1.91;86.49
69980;BME280;57318;56.232;43.944;2022-11-23T12:12:49;98323.53;;;-1.92;86.48
69980;BME280;57318;56.232;43.944;2022-11-23T12:15:20;98317.34;;;-1.89;86.36
69980;BME280;57318;56.232;43.944;2022-11-23T12:18:13;98322.47;;;-1.88;86.14
69980;BME280;57318;56.232;43.944;2022-11-23T12:20:59;98313.03;;;-1.90;85.97
69980;BME280;57318;56.232;43.944;2022-11-23T12:26:15;98328.31;;;-1.83;86.09
69980;BME280;57318;56.232;43.944;2022-11-23T12:29:09;98315.78;;;-1.93;85.81
69980;BME280;57318;56.232;43.944;2022-11-23T12:34:44;98316.78;;;-1.96;85.82
69980;BME280;57318;56.232;43.944;2022-11-23T12:40:25;98326.19;;;-1.93;85.55
69980;BME280;57318;56.232;43.944;2022-11-23T12:43:00;98317.09;;;-2.02;85.39
69980;BME280;57318;56.232;43.944;2022-11-23T12:45:47;98327.22;;;-2.15;85.73
69980;BME280;57318;56.232;43.944;2022-11-23T12:53:33;98338.41;;;-2.13;85.53
69980;BME280;57318;56.232;43.944;2022-11-23T12:58:37;98328.97;;;-2.15;85.57
69980;BME280;57318;56.232;43.944;2022-11-23T13:01:24;98324.69;;;-2.16;85.50
69980;BME280;57318;56.232;43.944;2022-11-23T13:04:25;98325.88;;;-2.24;85.94
69980;BME280;57318;56.232;43.944;2022-11-23T13:07:22;98324.69;;;-2.16;85.56
69980;BME280;57318;56.232;43.944;2022-11-23T13:09:54;98324.28;;;-2.26;85.56
69980;BME280;57318;56.232;43.944;2022-11-23T13:12:48;98327.66;;;-2.24;85.43
69980;BME280;57318;56.232;43.944;2022-11-23T13:15:34;98334.09;;;-2.33;85.49
69980;BME280;57318;56.232;43.944;2022-11-23T13:23:54;98334.94;;;-2.51;86.04
69980;BME280;57318;56.232;43.944;2022-11-23T13:26:20;98333.06;;;-2.48;85.73
69980;BME280;57318;56.232;43.944;2022-11-23T13:28:47;98340.00;;;-2.48;85.39
69980;BME280;57318;56.232;43.944;2022-11-23T13:33:51;98328.34;;;-2.40;85.60
69980;BME280;57318;56.232;43.944;2022-11-23T13:38:54;98334.50;;;-2.42;85.53
69980;BME280;57318;56.232;43.944;2022-11-23T13:44:19;98336.47;;;-2.47;85.52
69980;BME280;57318;56.232;43.944;2022-11-23T13:46:55;98344.16;;;-2.44;85.24
69980;BME280;57318;56.232;43.944;2022-11-23T13:49:38;98346.53;;;-2.59;85.20
69980;BME280;57318;56.232;43.944;2022-11-23T13:52:22;98344.34;;;-2.49;85.59
69980;BME280;57318;56.232;43.944;2022-11-23T13:57:40;98337.03;;;-2.60;85.87
69980;BME280;57318;56.232;43.944;2022-11-23T14:00:48;98337.03;;;-2.60;85.41
69980;BME280;57318;56.232;43.944;2022-11-23T14:11:56;98323.38;;;-2.65;84.96
69980;BME280;57318;56.232;43.944;2022-11-23T14:14:30;98335.34;;;-2.61;84.86
69980;BME280;57318;56.232;43.944;2022-11-23T14:41:39;98339.25;;;-2.71;84.91